createdAt,value
2023-02-09T00:00:41.511Z,62.8
2023-02-09T00:01:56.474Z,62.4
2023-02-09T00:03:07.000Z,62.5
2023-02-09T00:04:26.906Z,62.8
2023-02-09T00:05:43.100Z,63.3
2023-02-09T00:06:55.000Z,63.4
2023-02-09T00:08:11.000Z,63.3
2023-02-09T00:09:31.683Z,63.2
2023-02-09T00:10:48.122Z,63.7
2023-02-09T00:12:04.071Z,63.5
2023-02-09T00:13:20.265Z,63.2
2023-02-09T00:14:36.460Z,63
2023-02-09T00:15:52.654Z,63
2023-02-09T00:17:04.000Z,63.2
2023-02-09T00:18:20.000Z,63.1
2023-02-09T00:19:37.000Z,63
2023-02-09T00:20:52.000Z,63
2023-02-09T00:22:12.884Z,62.6
2023-02-09T00:23:24.000Z,63
2023-02-09T00:24:40.000Z,62.9
2023-02-09T00:27:17.418Z,62.8
2023-02-09T00:28:33.857Z,63
2023-02-09T00:29:45.000Z,62.9
2023-02-09T00:31:05.029Z,63.1
2023-02-09T00:32:20.488Z,63.7
2023-02-09T00:33:35.461Z,64
2023-02-09T00:34:50.920Z,63.8
2023-02-09T00:36:06.866Z,64.2
2023-02-09T00:37:18.000Z,64
2023-02-09T00:38:39.254Z,64
2023-02-09T00:39:50.000Z,64
2023-02-09T00:41:10.664Z,64.3
2023-02-09T00:42:22.000Z,64
2023-02-09T00:43:38.000Z,63.6
2023-02-09T00:44:55.000Z,64
2023-02-09T00:46:15.441Z,64.3
2023-02-09T00:47:27.000Z,64.5
2023-02-09T00:48:47.829Z,64.2
2023-02-09T00:50:04.024Z,64
2023-02-09T00:51:16.000Z,64
2023-02-09T00:52:36.412Z,64
2023-02-09T00:53:52.606Z,64.4
2023-02-09T00:55:04.000Z,64.9
2023-02-09T00:56:24.254Z,65
2023-02-09T00:57:36.000Z,64.9
2023-02-09T00:58:56.400Z,64.9
2023-02-09T01:00:11.620Z,64.7
2023-02-09T01:01:26.831Z,64.8
2023-02-09T01:02:38.000Z,64.9
2023-02-09T01:03:54.000Z,64.8
2023-02-09T01:05:13.457Z,65.3
2023-02-09T01:06:29.651Z,65.3
2023-02-09T01:07:46.088Z,65.3
2023-02-09T01:09:02.039Z,65.4
2023-02-09T01:10:18.234Z,65.6
2023-02-09T01:11:24.000Z,65.6
2023-02-09T01:11:34.698Z,65.9
2023-02-09T01:12:50.626Z,65.6
2023-02-09T01:14:07.092Z,65.6
2023-02-09T01:15:23.017Z,65.7
2023-02-09T01:17:51.000Z,65.8
2023-02-09T01:19:11.603Z,66
2023-02-09T01:20:23.000Z,66.2
2023-02-09T01:21:43.010Z,66
2023-02-09T01:22:55.000Z,66.4
2023-02-09T01:24:15.644Z,66.2
2023-02-09T01:25:31.597Z,66
2023-02-09T01:26:48.039Z,66
2023-02-09T01:27:59.000Z,66.8
2023-02-09T01:29:20.448Z,66.4
2023-02-09T01:30:35.652Z,66.1
2023-02-09T01:31:50.620Z,66.8
2023-02-09T01:33:06.099Z,66.9
2023-02-09T01:34:21.306Z,66.6
2023-02-09T01:35:37.250Z,66.9
2023-02-09T01:36:53.447Z,67.2
2023-02-09T01:38:09.643Z,67
2023-02-09T01:39:25.840Z,66.8
2023-02-09T01:40:42.036Z,66.7
2023-02-09T01:41:58.490Z,67
2023-02-09T01:43:14.670Z,67
2023-02-09T01:44:30.625Z,67
2023-02-09T01:45:47.064Z,67.1
2023-02-09T01:47:03.018Z,67.5
2023-02-09T01:48:15.000Z,67.5
2023-02-09T01:49:35.656Z,67.5
2023-02-09T01:50:40.000Z,67.3
2023-02-09T01:50:50.622Z,67.5
2023-02-09T01:52:07.070Z,68
2023-02-09T01:53:18.000Z,68
2023-02-09T01:54:39.211Z,67.5
2023-02-09T01:57:11.603Z,67
2023-02-09T01:58:23.000Z,67.1
2023-02-09T01:59:43.022Z,67
2023-02-09T02:00:58.234Z,66.9
2023-02-09T02:02:14.675Z,66.9
2023-02-09T02:03:29.653Z,66.8
2023-02-09T02:04:45.135Z,66.8
2023-02-09T02:05:56.000Z,67
2023-02-09T02:07:17.258Z,66.8
2023-02-09T02:08:33.454Z,66.6
2023-02-09T02:09:45.000Z,66.6
2023-02-09T02:11:06.094Z,66.9
2023-02-09T02:12:22.288Z,67.1
2023-02-09T02:13:38.484Z,66.8
2023-02-09T02:14:54.693Z,67.2
2023-02-09T02:16:10.632Z,67.7
2023-02-09T02:17:26.829Z,67.7
2023-02-09T02:18:43.275Z,67.7
2023-02-09T02:19:59.466Z,67.5
2023-02-09T02:21:14.674Z,67.4
2023-02-09T02:22:30.630Z,68.1
2023-02-09T02:23:42.000Z,68.3
2023-02-09T02:25:03.023Z,68.2
2023-02-09T02:26:19.219Z,68.4
2023-02-09T02:27:35.415Z,68.5
2023-02-09T02:28:51.611Z,68.4
2023-02-09T02:30:06.834Z,68.5
2023-02-09T02:31:22.046Z,69.2
2023-02-09T02:32:38.243Z,69.4
2023-02-09T02:33:49.000Z,69.4
2023-02-09T02:35:08.924Z,69.2
2023-02-09T02:36:20.000Z,69.2
2023-02-09T02:37:41.321Z,69.5
2023-02-09T02:38:53.000Z,69.6
2023-02-09T02:40:13.462Z,69.6
2023-02-09T02:41:29.658Z,70
2023-02-09T02:42:45.855Z,70.4
2023-02-09T02:44:02.291Z,70.1
2023-02-09T02:45:18.247Z,70.1
2023-02-09T02:46:34.443Z,71.2
2023-02-09T02:47:50.640Z,71.2
2023-02-09T02:49:02.000Z,70.8
2023-02-09T02:50:23.032Z,70.8
2023-02-09T02:51:38.493Z,71.7
2023-02-09T02:52:54.441Z,71.8
2023-02-09T02:54:10.637Z,71.6
2023-02-09T02:55:26.834Z,71.6
2023-02-09T02:56:38.000Z,72.3
2023-02-09T02:57:55.000Z,73.1
2023-02-09T02:59:11.000Z,73.1
2023-02-09T03:00:30.902Z,72.7
2023-02-09T03:01:46.104Z,72.7
2023-02-09T03:03:02.310Z,72.7
2023-02-09T03:04:14.000Z,72.6
2023-02-09T03:05:34.700Z,72.3
2023-02-09T03:06:50.642Z,72.3
2023-02-09T03:08:06.839Z,72
2023-02-09T03:09:18.000Z,72.3
2023-02-09T03:10:29.000Z,72
2023-02-09T03:10:39.232Z,72.9
2023-02-09T03:11:51.000Z,72.8
2023-02-09T03:13:11.624Z,72.3
2023-02-09T03:14:23.000Z,72.2
2023-02-09T03:17:00.213Z,71.7
2023-02-09T03:18:15.426Z,71.7
2023-02-09T03:19:31.622Z,71.8
2023-02-09T03:20:47.818Z,72.4
2023-02-09T03:22:04.014Z,72.1
2023-02-09T03:23:16.000Z,72.1
2023-02-09T03:24:36.648Z,72.1
2023-02-09T03:25:48.000Z,72
2023-02-09T03:27:08.069Z,72
2023-02-09T03:28:24.277Z,72.1
2023-02-09T03:29:35.000Z,72
2023-02-09T03:30:54.701Z,71.5
2023-02-09T03:32:09.679Z,71.4
2023-02-09T03:33:24.892Z,71.6
2023-02-09T03:34:36.000Z,71.8
2023-02-09T03:35:57.284Z,71.3
2023-02-09T03:37:13.480Z,70.9
2023-02-09T03:38:25.000Z,70.9
2023-02-09T03:39:41.000Z,71.1
2023-02-09T03:40:57.000Z,71.5
2023-02-09T03:42:18.265Z,71.9
2023-02-09T03:43:34.705Z,71.9
2023-02-09T03:44:50.658Z,72
2023-02-09T03:46:02.000Z,71.9
2023-02-09T03:47:18.000Z,72.2
2023-02-09T03:48:35.000Z,72.2
2023-02-09T03:49:50.000Z,72.5
2023-02-09T03:51:10.656Z,72.7
2023-02-09T03:52:27.108Z,72.9
2023-02-09T03:53:43.308Z,72.9
2023-02-09T03:54:59.245Z,73.2
2023-02-09T03:56:15.441Z,73.7
2023-02-09T03:57:31.637Z,73.4
2023-02-09T03:58:47.112Z,73.7
2023-02-09T04:00:02.315Z,73.4
2023-02-09T04:01:14.000Z,73.2
2023-02-09T04:02:34.704Z,73.2
2023-02-09T04:03:50.915Z,73.3
2023-02-09T04:05:06.142Z,73.3
2023-02-09T04:06:21.352Z,73.2
2023-02-09T04:07:33.000Z,73
2023-02-09T04:08:49.000Z,72.6
2023-02-09T04:10:09.684Z,72.6
2023-02-09T04:11:25.881Z,72.8
2023-02-09T04:12:37.000Z,72.7
2023-02-09T04:13:58.274Z,72.6
2023-02-09T04:15:14.470Z,72.6
2023-02-09T04:16:26.000Z,72.7
2023-02-09T04:17:47.112Z,72.6
2023-02-09T04:18:58.000Z,72.6
2023-02-09T04:20:15.000Z,72.3
2023-02-09T04:21:35.451Z,72.8
2023-02-09T04:22:50.663Z,73.1
2023-02-09T04:24:07.111Z,73.1
2023-02-09T04:25:18.000Z,73.1
2023-02-09T04:26:39.253Z,73
2023-02-09T04:27:55.449Z,73.1
2023-02-09T04:29:11.646Z,73.2
2023-02-09T04:30:28.085Z,73.4
2023-02-09T04:31:44.038Z,73.5
2023-02-09T04:32:55.000Z,73.5
2023-02-09T04:34:10.000Z,73.6
2023-02-09T04:35:25.000Z,73.4
2023-02-09T04:36:40.000Z,73.3
2023-02-09T04:38:01.104Z,73.4
2023-02-09T04:39:13.000Z,73.7
2023-02-09T04:40:33.497Z,73.6
2023-02-09T04:41:49.694Z,73.9
2023-02-09T04:43:01.000Z,74.5
2023-02-09T04:44:22.339Z,74.7
2023-02-09T04:45:34.000Z,74.7
2023-02-09T04:46:54.479Z,74.8
2023-02-09T04:48:10.675Z,74.9
2023-02-09T04:49:22.000Z,75
2023-02-09T04:50:38.000Z,75
2023-02-09T04:51:59.517Z,74.7
2023-02-09T04:53:14.476Z,74.8
2023-02-09T04:54:30.673Z,74.8
2023-02-09T04:55:46.238Z,74.9
2023-02-09T04:57:02.087Z,74.7
2023-02-09T04:58:18.283Z,74.6
2023-02-09T04:59:34.721Z,74.6
2023-02-09T05:00:50.676Z,74.3
2023-02-09T05:02:05.899Z,74.3
2023-02-09T05:03:21.366Z,74.3
2023-02-09T05:04:36.335Z,74.5
2023-02-09T05:05:47.000Z,74.2
2023-02-09T05:07:08.002Z,74.2
2023-02-09T05:08:19.000Z,74.2
2023-02-09T05:09:36.000Z,73.8
2023-02-09T05:10:52.000Z,74
2023-02-09T05:12:12.529Z,73.8
2023-02-09T05:13:28.968Z,74
2023-02-09T05:14:40.000Z,74.1
2023-02-09T05:15:56.000Z,74
2023-02-09T05:17:17.557Z,74.1
2023-02-09T05:18:29.000Z,74.3
2023-02-09T05:19:45.000Z,74.4
2023-02-09T05:21:01.000Z,74.3
2023-02-09T05:22:21.116Z,74.3
2023-02-09T05:23:37.561Z,74.4
2023-02-09T05:24:53.764Z,74.5
2023-02-09T05:26:09.704Z,74.7
2023-02-09T05:27:25.901Z,74.4
2023-02-09T05:28:37.000Z,74.3
2023-02-09T05:29:44.000Z,73.6
2023-02-09T05:29:58.539Z,74.1
2023-02-09T05:31:13.764Z,74.1
2023-02-09T05:32:28.729Z,73.6
2023-02-09T05:33:39.000Z,73.4
2023-02-09T05:36:15.360Z,73.8
2023-02-09T05:37:31.800Z,73.6
2023-02-09T05:38:47.753Z,73.8
2023-02-09T05:40:03.950Z,73.8
2023-02-09T05:41:16.000Z,73.7
2023-02-09T05:42:32.000Z,73.7
2023-02-09T05:43:52.538Z,73.8
2023-02-09T05:45:08.985Z,73.7
2023-02-09T05:46:20.000Z,73.4
2023-02-09T05:47:41.374Z,73.7
2023-02-09T05:48:57.324Z,74
2023-02-09T05:50:09.000Z,74.1
2023-02-09T05:51:24.000Z,74.1
2023-02-09T05:52:40.000Z,73.8
2023-02-09T05:53:57.000Z,73.8
2023-02-09T05:55:13.000Z,73.6
2023-02-09T05:56:29.000Z,73.6
2023-02-09T05:57:49.716Z,73.4
2023-02-09T05:59:01.000Z,73.5
2023-02-09T06:00:22.356Z,73.8
2023-02-09T06:01:37.577Z,73.6
2023-02-09T06:02:52.800Z,73.7
2023-02-09T06:04:04.000Z,73.7
2023-02-09T06:05:23.965Z,73.6
2023-02-09T06:06:35.000Z,73.6
2023-02-09T06:07:55.626Z,73.7
2023-02-09T06:09:07.000Z,73.6
2023-02-09T06:10:23.000Z,73.6
2023-02-09T06:11:39.000Z,73.2
2023-02-09T06:13:00.160Z,73.3
2023-02-09T06:14:06.000Z,73.2
2023-02-09T06:14:12.000Z,73.4
2023-02-09T06:15:22.000Z,73.2
2023-02-09T06:15:32.808Z,73.5
2023-02-09T06:16:49.023Z,73.5
2023-02-09T06:18:00.000Z,73.5
2023-02-09T06:21:49.000Z,73.3
2023-02-09T06:23:08.996Z,73.2
2023-02-09T06:24:20.000Z,73
2023-02-09T06:25:37.000Z,73.3
2023-02-09T06:26:53.000Z,73.3
2023-02-09T06:28:01.000Z,72.9
2023-02-09T06:28:13.535Z,73.5
2023-02-09T06:29:25.000Z,73.7
2023-02-09T06:30:41.000Z,73.4
2023-02-09T06:32:01.394Z,73.1
2023-02-09T06:34:27.000Z,73
2023-02-09T06:35:47.048Z,73.3
2023-02-09T06:36:58.000Z,73
2023-02-09T06:38:19.450Z,72.7
2023-02-09T06:39:35.388Z,72.7
2023-02-09T06:40:47.000Z,72.6
2023-02-09T06:42:07.781Z,72.6
2023-02-09T06:43:24.226Z,72.6
2023-02-09T06:44:30.000Z,72.7
2023-02-09T06:44:36.000Z,72.6
2023-02-09T06:45:56.621Z,72.7
2023-02-09T06:47:12.567Z,72.6
2023-02-09T06:48:28.765Z,72.5
2023-02-09T06:50:57.000Z,73
2023-02-09T06:52:06.000Z,74.2
2023-02-09T06:52:16.370Z,73.2
2023-02-09T06:53:22.000Z,74.1
2023-02-09T06:53:32.822Z,74
2023-02-09T06:54:49.010Z,73.7
2023-02-09T06:56:00.000Z,73.9
2023-02-09T06:57:10.000Z,74
2023-02-09T06:59:49.000Z,74.4
2023-02-09T07:01:10.000Z,74.1
2023-02-09T07:03:41.166Z,73.7
2023-02-09T07:04:56.620Z,73.6
2023-02-09T07:06:11.601Z,74.2
2023-02-09T07:07:16.000Z,73.3
2023-02-09T07:07:26.813Z,74
2023-02-09T07:08:43.264Z,74
2023-02-09T07:09:49.000Z,73.5
2023-02-09T07:09:59.453Z,73.5
2023-02-09T07:11:11.000Z,73
2023-02-09T07:13:43.000Z,73.5
2023-02-09T07:16:20.443Z,74.1
2023-02-09T07:18:12.169Z,73.7
2023-02-09T07:18:52.851Z,73
2023-02-09T07:20:04.000Z,73.3
2023-02-09T07:21:24.979Z,73.1
2023-02-09T07:22:30.000Z,72.4
2023-02-09T07:22:37.000Z,72.9
2023-02-09T07:23:52.000Z,73
2023-02-09T07:25:08.000Z,72.8
2023-02-09T07:26:28.783Z,72.4
2023-02-09T07:28:57.000Z,72.2
2023-02-09T07:30:17.371Z,72.5
2023-02-09T07:31:29.000Z,72.3
2023-02-09T07:32:49.039Z,72.4
2023-02-09T07:34:04.004Z,72.1
2023-02-09T07:35:10.000Z,72.2
2023-02-09T07:35:16.000Z,71.8
2023-02-09T07:36:36.397Z,71.9
2023-02-09T07:37:52.849Z,72
2023-02-09T07:39:08.790Z,72.1
2023-02-09T07:41:41.183Z,72.7
2023-02-09T07:42:53.000Z,73.1
2023-02-09T07:44:13.575Z,73.1
2023-02-09T07:45:29.771Z,72.1
2023-02-09T07:46:46.236Z,72.3
2023-02-09T07:47:58.000Z,72.3
2023-02-09T07:49:18.613Z,72.3
2023-02-09T07:50:33.572Z,72.1
2023-02-09T07:51:49.769Z,71.7
2023-02-09T07:53:05.965Z,71.3
2023-02-09T07:54:22.161Z,71.1
2023-02-09T07:55:34.000Z,71.2
2023-02-09T07:56:54.799Z,71.1
2023-02-09T07:58:06.000Z,71
2023-02-09T07:59:21.000Z,70.7
2023-02-09T08:00:41.187Z,70.3
2023-02-09T08:01:45.000Z,70.1
2023-02-09T08:01:56.670Z,70.6
2023-02-09T08:03:11.622Z,70.2
2023-02-09T08:04:23.000Z,70.2
2023-02-09T08:05:39.000Z,70
2023-02-09T08:08:06.000Z,69.2
2023-02-09T08:08:12.000Z,70.1
2023-02-09T08:09:32.855Z,69.8
2023-02-09T08:10:48.801Z,69.6
2023-02-09T08:12:00.000Z,69.8
2023-02-09T08:14:37.391Z,69.9
2023-02-09T08:15:53.587Z,69.9
2023-02-09T08:17:09.784Z,69.3
2023-02-09T08:18:21.000Z,69.5
2023-02-09T08:19:37.000Z,69.5
2023-02-09T08:20:57.389Z,69.2
2023-02-09T08:22:13.586Z,69
2023-02-09T08:23:30.029Z,69.2
2023-02-09T08:24:46.228Z,69.8
2023-02-09T08:25:58.000Z,69.5
2023-02-09T08:27:18.623Z,69
2023-02-09T08:28:29.000Z,68.5
2023-02-09T08:29:44.000Z,68.5
2023-02-09T08:30:59.000Z,68.3
2023-02-09T08:32:19.492Z,68.4
2023-02-09T08:33:35.439Z,68.2
2023-02-09T08:34:47.000Z,67.7
2023-02-09T08:36:08.078Z,67.6
2023-02-09T08:37:24.298Z,67.4
2023-02-09T08:38:36.000Z,67.5
2023-02-09T08:39:56.673Z,67.5
2023-02-09T08:41:08.000Z,67.3
2023-02-09T08:42:28.817Z,66.9
2023-02-09T08:43:40.000Z,66.7
2023-02-09T08:45:01.209Z,66.5
2023-02-09T08:46:17.651Z,66.1
2023-02-09T08:47:33.853Z,65.8
2023-02-09T08:48:48.815Z,65.9
2023-02-09T08:50:00.000Z,66.2
2023-02-09T08:51:11.000Z,66
2023-02-09T08:51:21.207Z,65.7
2023-02-09T08:52:26.000Z,65.9
2023-02-09T08:52:37.646Z,66.1
2023-02-09T08:53:53.600Z,66.5
2023-02-09T08:55:09.796Z,66.4
2023-02-09T08:58:56.688Z,65.5
2023-02-09T09:00:08.000Z,65.4
2023-02-09T09:01:27.848Z,65.4
2023-02-09T09:02:43.324Z,65.1
2023-02-09T09:03:59.256Z,65.1
2023-02-09T09:05:15.696Z,65
2023-02-09T09:06:31.650Z,65
2023-02-09T09:07:43.000Z,65.3
2023-02-09T09:08:59.000Z,64.7
2023-02-09T09:10:19.261Z,64.2
2023-02-09T09:11:35.699Z,64
2023-02-09T09:12:51.905Z,63.6
2023-02-09T09:14:08.094Z,64.1
2023-02-09T09:15:24.296Z,64.1
2023-02-09T09:16:40.243Z,63
2023-02-09T09:17:52.000Z,62.8
2023-02-09T09:19:08.000Z,63
2023-02-09T09:20:24.000Z,62.4
2023-02-09T09:21:40.000Z,62.6
2023-02-09T09:22:57.000Z,62.6
2023-02-09T09:24:17.421Z,62.5
2023-02-09T09:25:33.618Z,62.2
2023-02-09T09:26:44.000Z,62.3
2023-02-09T09:28:04.300Z,61.9
2023-02-09T09:29:19.265Z,61.5
2023-02-09T09:30:30.000Z,61.8
2023-02-09T09:31:45.000Z,61.9
2023-02-09T09:33:05.897Z,61.5
2023-02-09T09:34:17.000Z,61.1
2023-02-09T09:35:34.000Z,61.4
2023-02-09T09:36:54.485Z,61
2023-02-09T09:38:10.681Z,60.9
2023-02-09T09:39:22.000Z,61
2023-02-09T09:40:43.075Z,60.7
2023-02-09T09:41:59.270Z,60.7
2023-02-09T09:43:15.469Z,60
2023-02-09T09:44:31.664Z,60.4
2023-02-09T09:45:47.861Z,60.5
2023-02-09T09:46:59.000Z,60.6
2023-02-09T09:48:19.269Z,60.5
2023-02-09T09:49:35.465Z,60.9
2023-02-09T09:50:51.662Z,59.8
2023-02-09T09:52:03.000Z,59.8
2023-02-09T09:53:24.308Z,59.9
2023-02-09T09:54:40.250Z,59.3
2023-02-09T09:55:52.000Z,58.5
2023-02-09T09:57:11.669Z,59.4
2023-02-09T09:58:26.881Z,59.2
2023-02-09T09:59:38.000Z,59.4
2023-02-09T10:00:47.000Z,58.2
2023-02-09T10:00:59.520Z,59
2023-02-09T10:02:10.000Z,59.3
2023-02-09T10:03:29.959Z,58.1
2023-02-09T10:04:45.904Z,57.7
2023-02-09T10:07:18.297Z,58.8
2023-02-09T10:08:34.494Z,58.6
2023-02-09T10:09:50.689Z,58.9
2023-02-09T10:11:07.138Z,58.2
2023-02-09T10:12:18.000Z,57.8
2023-02-09T10:13:39.278Z,58
2023-02-09T10:14:55.473Z,57.2
2023-02-09T10:16:07.000Z,56.9
2023-02-09T10:17:28.112Z,57.5
2023-02-09T10:18:39.000Z,58.2
2023-02-09T10:19:59.275Z,57.7
2023-02-09T10:21:15.730Z,58
2023-02-09T10:22:31.667Z,57.7
2023-02-09T10:23:43.000Z,58
2023-02-09T10:24:59.000Z,57.4
2023-02-09T10:26:20.257Z,57.5
2023-02-09T10:27:36.696Z,57.5
2023-02-09T10:28:52.650Z,57.3
2023-02-09T10:30:08.846Z,57.8
2023-02-09T10:31:25.298Z,57.1
2023-02-09T10:32:41.239Z,56.3
2023-02-09T10:33:53.000Z,56.3
2023-02-09T10:35:09.000Z,57.2
2023-02-09T10:36:29.099Z,56.8
2023-02-09T10:37:40.000Z,56
2023-02-09T10:39:01.492Z,56.3
2023-02-09T10:40:13.000Z,56.9
2023-02-09T10:41:23.000Z,55.7
2023-02-09T10:41:33.884Z,55.7
2023-02-09T10:42:49.825Z,55.7
2023-02-09T10:44:06.019Z,56.3
2023-02-09T10:45:22.213Z,55.9
2023-02-09T10:47:54.601Z,56.6
2023-02-09T10:49:11.050Z,57.1
2023-02-09T10:50:22.000Z,56.9
2023-02-09T10:51:39.000Z,56.3
2023-02-09T10:52:58.636Z,55.8
2023-02-09T10:54:14.833Z,55.4
2023-02-09T10:55:26.000Z,55.6
2023-02-09T10:56:47.225Z,54.6
2023-02-09T10:58:03.169Z,54.8
2023-02-09T10:59:19.362Z,55.7
2023-02-09T11:00:35.556Z,54.8
2023-02-09T11:01:47.000Z,54.4
2023-02-09T11:03:07.944Z,54.6
2023-02-09T11:04:24.139Z,54.2
2023-02-09T11:05:40.333Z,54.9
2023-02-09T11:06:56.527Z,55
2023-02-09T11:08:12.721Z,54.8
2023-02-09T11:09:27.931Z,54.4
2023-02-09T11:10:44.125Z,53.6
2023-02-09T11:12:00.318Z,53.5
2023-02-09T11:13:12.000Z,53.6
2023-02-09T11:14:32.706Z,54.3
2023-02-09T11:15:44.000Z,52.9
2023-02-09T11:17:05.094Z,52.4
2023-02-09T11:18:21.532Z,52.4
2023-02-09T11:19:37.482Z,52
2023-02-09T11:20:53.676Z,52
2023-02-09T11:22:05.000Z,53.1
2023-02-09T11:23:26.064Z,52.5
2023-02-09T11:24:38.000Z,52.4
2023-02-09T11:25:53.000Z,52.9
2023-02-09T11:27:13.662Z,52.6
2023-02-09T11:28:29.856Z,52.2
2023-02-09T11:29:46.299Z,51.4
2023-02-09T11:31:02.504Z,51.6
2023-02-09T11:32:18.438Z,52.1
2023-02-09T11:33:30.000Z,50.9
2023-02-09T11:34:50.826Z,50.3
2023-02-09T11:36:07.020Z,50.8
2023-02-09T11:37:19.000Z,50.8
2023-02-09T11:38:35.000Z,50
2023-02-09T11:39:51.000Z,51.9
2023-02-09T11:41:07.000Z,49.6
2023-02-09T11:42:27.261Z,50.3
2023-02-09T11:43:39.000Z,50
2023-02-09T11:44:55.000Z,50.3
2023-02-09T11:46:15.851Z,49.9
2023-02-09T11:47:31.782Z,49.6
2023-02-09T11:48:47.976Z,49.1
2023-02-09T11:50:04.170Z,49.6
2023-02-09T11:51:16.000Z,49.3
2023-02-09T11:52:32.000Z,49.4
2023-02-09T11:53:48.000Z,49.4
2023-02-09T11:54:57.000Z,48.7
2023-02-09T11:55:09.191Z,48.7
2023-02-09T11:56:21.000Z,48.1
2023-02-09T11:57:41.334Z,48.4
2023-02-09T11:58:56.544Z,48.7
2023-02-09T12:01:18.000Z,49.3
2023-02-09T12:01:28.932Z,48.9
2023-02-09T12:02:40.000Z,48.6
2023-02-09T12:04:01.320Z,48.4
2023-02-09T12:05:17.514Z,49.5
2023-02-09T12:07:50.145Z,49.7
2023-02-09T12:09:06.095Z,49.5
2023-02-09T12:10:22.290Z,49.2
2023-02-09T12:11:38.729Z,49.5
2023-02-09T12:12:54.678Z,49.5
2023-02-09T12:14:10.872Z,49.6
2023-02-09T12:15:21.000Z,50.6
2023-02-09T12:16:42.276Z,49.7
2023-02-09T12:17:58.469Z,49.6
2023-02-09T12:19:10.000Z,48.7
2023-02-09T12:20:30.857Z,49.9
2023-02-09T12:21:47.051Z,49.5
2023-02-09T12:22:59.000Z,49.7
2023-02-09T12:24:19.688Z,49.9
2023-02-09T12:25:35.631Z,49.6
2023-02-09T12:26:40.000Z,48.8
2023-02-09T12:26:51.825Z,50.1
2023-02-09T12:28:08.270Z,50.2
2023-02-09T12:29:24.213Z,49.1
2023-02-09T12:30:40.653Z,48.6
2023-02-09T12:33:11.810Z,48.5
2023-02-09T12:34:28.004Z,48.9
2023-02-09T12:35:44.466Z,48.5
2023-02-09T12:37:00.392Z,48.3
2023-02-09T12:38:16.585Z,48.4
2023-02-09T12:39:32.779Z,48.5
2023-02-09T12:40:48.973Z,48.5
2023-02-09T12:42:01.000Z,48.7
2023-02-09T12:43:21.361Z,49.4
2023-02-09T12:44:37.555Z,49.1
2023-02-09T12:45:53.748Z,49.4
2023-02-09T12:47:09.942Z,48.8
2023-02-09T12:48:25.153Z,48.2
2023-02-09T12:49:41.346Z,48.6
2023-02-09T12:50:57.539Z,49
2023-02-09T12:52:01.000Z,48.2
2023-02-09T12:52:12.759Z,48.8
2023-02-09T12:53:28.953Z,49
2023-02-09T12:54:40.000Z,48.7
2023-02-09T12:56:00.357Z,49.2
2023-02-09T12:58:28.000Z,48.6
2023-02-09T12:59:44.000Z,50
2023-02-09T13:01:05.131Z,49.2
2023-02-09T13:02:21.325Z,49.7
2023-02-09T13:03:36.545Z,48.8
2023-02-09T13:04:41.000Z,48.6
2023-02-09T13:04:51.755Z,48.7
2023-02-09T13:06:08.194Z,48.7
2023-02-09T13:07:24.143Z,48.9
2023-02-09T13:08:40.337Z,49.5
2023-02-09T13:11:12.724Z,48.4
2023-02-09T13:12:29.167Z,49.2
2023-02-09T13:13:34.000Z,48.2
2023-02-09T13:13:45.111Z,49
2023-02-09T13:15:01.305Z,48.4
2023-02-09T13:16:13.000Z,47.5
2023-02-09T13:17:33.692Z,47.9
2023-02-09T13:18:38.000Z,49.5
2023-02-09T13:20:01.000Z,47.9
2023-02-09T13:21:21.539Z,48.5
2023-02-09T13:22:26.000Z,48.5
2023-02-09T13:22:33.000Z,49
2023-02-09T13:25:08.892Z,49.3
2023-02-09T13:26:25.085Z,49.3
2023-02-09T13:28:57.472Z,48
2023-02-09T13:30:13.666Z,47.5
2023-02-09T13:31:28.887Z,47.9
2023-02-09T13:32:44.097Z,47.9
2023-02-09T13:34:00.291Z,47.7
2023-02-09T13:35:15.511Z,48.4
2023-02-09T13:36:30.973Z,47.6
2023-02-09T13:37:47.162Z,49.3
2023-02-09T13:39:03.366Z,48.2
2023-02-09T13:40:15.000Z,49
2023-02-09T13:41:35.496Z,48.9
2023-02-09T13:42:51.690Z,49.7
2023-02-09T13:44:07.884Z,48.8
2023-02-09T13:45:19.000Z,48.2
2023-02-09T13:46:36.000Z,47.8
2023-02-09T13:47:56.465Z,47.7
2023-02-09T13:49:12.658Z,47.8
2023-02-09T13:50:28.852Z,48.5
2023-02-09T13:51:45.045Z,48.5
2023-02-09T13:53:00.501Z,48.8
2023-02-09T13:54:16.450Z,49.4
2023-02-09T13:55:32.644Z,47.8
2023-02-09T13:56:48.837Z,49
2023-02-09T13:58:05.031Z,48.5
2023-02-09T13:59:21.225Z,47.9
2023-02-09T14:00:37.419Z,48.5
2023-02-09T14:01:53.613Z,47.7
2023-02-09T14:03:05.000Z,48.5
2023-02-09T14:04:26.000Z,48.2
2023-02-09T14:05:42.194Z,47.3
2023-02-09T14:06:58.387Z,48
2023-02-09T14:08:14.581Z,48.6
2023-02-09T14:09:30.040Z,48.8
2023-02-09T14:10:45.986Z,47.9
2023-02-09T14:12:02.179Z,47.6
2023-02-09T14:13:14.000Z,48.4
2023-02-09T14:14:30.000Z,47.9
2023-02-09T14:15:46.000Z,47.9
2023-02-09T14:17:07.213Z,49.6
2023-02-09T14:18:23.148Z,47.5
2023-02-09T14:19:29.000Z,47.7
2023-02-09T14:19:39.341Z,48.9
2023-02-09T14:20:55.535Z,47.8
2023-02-09T14:22:11.728Z,48
2023-02-09T14:23:27.922Z,48.2
2023-02-09T14:25:59.325Z,48.5
2023-02-09T14:27:15.519Z,48.5
2023-02-09T14:28:31.713Z,49
2023-02-09T14:29:48.156Z,48.2
2023-02-09T14:31:04.349Z,49.3
2023-02-09T14:32:20.295Z,48.2
2023-02-09T14:33:26.000Z,48.5
2023-02-09T14:33:36.489Z,47.6
2023-02-09T14:34:48.000Z,47.9
2023-02-09T14:36:08.876Z,48.4
2023-02-09T14:37:25.069Z,48.5
2023-02-09T14:39:57.457Z,48
2023-02-09T14:41:13.650Z,48.2
2023-02-09T14:42:28.861Z,47.4
2023-02-09T14:43:45.055Z,48.2
2023-02-09T14:45:01.248Z,48.9
2023-02-09T14:46:17.442Z,48.9
2023-02-09T14:47:33.636Z,48.5
2023-02-09T14:48:49.830Z,49.3
2023-02-09T14:50:06.023Z,48.1
2023-02-09T14:51:18.000Z,48.1
2023-02-09T14:52:38.410Z,48.5
2023-02-09T14:53:50.000Z,48.3
2023-02-09T14:55:10.797Z,48.4
2023-02-09T14:56:22.000Z,48.2
2023-02-09T14:57:43.428Z,49.3
2023-02-09T14:58:58.394Z,49.3
2023-02-09T15:00:14.588Z,49.5
2023-02-09T15:01:30.782Z,49
2023-02-09T15:02:42.000Z,49.2
2023-02-09T15:04:03.424Z,49.1
2023-02-09T15:05:19.364Z,49
2023-02-09T15:06:35.557Z,49.6
2023-02-09T15:07:51.751Z,48.9
2023-02-09T15:09:07.945Z,48.8
2023-02-09T15:10:24.138Z,48.3
2023-02-09T15:11:40.332Z,48.3
2023-02-09T15:12:56.526Z,48.3
2023-02-09T15:14:08.000Z,47.5
2023-02-09T15:15:28.175Z,47.8
2023-02-09T15:16:39.000Z,48.5
2023-02-09T15:17:56.000Z,47.9
2023-02-09T15:19:16.511Z,48.2
2023-02-09T15:20:32.705Z,48.4
2023-02-09T15:21:44.000Z,47.8
2023-02-09T15:23:00.000Z,48.7
2023-02-09T15:24:21.286Z,49.8
2023-02-09T15:25:36.507Z,49.6
2023-02-09T15:26:51.717Z,47.9
2023-02-09T15:28:07.185Z,47.8
2023-02-09T15:29:17.000Z,48.2
2023-02-09T15:30:38.341Z,47.6
2023-02-09T15:33:06.000Z,48.4
2023-02-09T15:34:22.000Z,48.6
2023-02-09T15:35:43.116Z,49.1
2023-02-09T15:36:59.310Z,48.4
2023-02-09T15:38:15.503Z,49.8
2023-02-09T15:39:31.697Z,49.8
2023-02-09T15:40:47.891Z,49.9
2023-02-09T15:42:04.085Z,49.5
2023-02-09T15:43:20.542Z,48.5
2023-02-09T15:44:36.472Z,50.2
2023-02-09T15:45:51.683Z,50.1
2023-02-09T15:47:07.876Z,50.6
2023-02-09T15:48:19.000Z,51
2023-02-09T15:49:40.263Z,50.2
2023-02-09T15:50:56.457Z,50.9
2023-02-09T15:52:12.650Z,50.9
2023-02-09T15:53:29.090Z,50.5
2023-02-09T15:54:40.000Z,51.5
2023-02-09T15:56:01.233Z,52.1
2023-02-09T15:57:17.426Z,52.6
2023-02-09T15:58:29.000Z,53.1
2023-02-09T15:59:49.814Z,53.5
2023-02-09T16:01:06.256Z,53.2
2023-02-09T16:02:21.218Z,53.8
2023-02-09T16:03:37.662Z,53.8
2023-02-09T16:04:49.000Z,54.3
2023-02-09T16:06:09.799Z,54.2
2023-02-09T16:07:25.993Z,55.4
2023-02-09T16:08:42.438Z,55.7
2023-02-09T16:09:58.634Z,56
2023-02-09T16:11:14.575Z,55.4
2023-02-09T16:12:26.000Z,54.7
2023-02-09T16:13:46.962Z,54.7
2023-02-09T16:15:03.157Z,54.2
2023-02-09T16:16:19.604Z,55.5
2023-02-09T16:17:35.544Z,55.8
2023-02-09T16:18:50.755Z,54.7
2023-02-09T16:20:02.000Z,55.8
2023-02-09T16:21:23.142Z,55.7
2023-02-09T16:22:39.578Z,55.7
2023-02-09T16:23:55.530Z,55.7
2023-02-09T16:25:07.000Z,55.4
2023-02-09T16:26:28.162Z,55.5
2023-02-09T16:27:44.113Z,55.9
2023-02-09T16:29:00.549Z,55.7
2023-02-09T16:30:16.501Z,55.6
2023-02-09T16:31:32.695Z,56
2023-02-09T16:32:47.915Z,56
2023-02-09T16:34:03.126Z,56.5
2023-02-09T16:35:19.319Z,56.4
2023-02-09T16:36:31.000Z,57.3
2023-02-09T16:37:46.000Z,56.6
2023-02-09T16:39:06.190Z,56.6
2023-02-09T16:40:22.137Z,56.6
2023-02-09T16:41:38.332Z,57
2023-02-09T16:42:50.000Z,56.8
2023-02-09T16:44:06.000Z,57.7
2023-02-09T16:45:27.176Z,58.2
2023-02-09T16:46:43.107Z,58.5
2023-02-09T16:47:59.301Z,58.5
2023-02-09T16:49:15.739Z,57.5
2023-02-09T16:50:31.689Z,57.2
2023-02-09T16:51:48.133Z,57.2
2023-02-09T16:53:04.078Z,57.4
2023-02-09T16:54:20.527Z,57.5
2023-02-09T16:55:35.482Z,57.8
2023-02-09T16:56:51.676Z,58
2023-02-09T16:58:03.000Z,57.9
2023-02-09T16:59:24.307Z,58.4
2023-02-09T17:00:40.257Z,59
2023-02-09T17:01:56.451Z,59
2023-02-09T17:03:08.000Z,58.6